Time;durP1;ratioP1;P1;durP2;ratioP2;P2;SDS_P1;SDS_P2;PMS_P1;PMS_P2;Temp;Humidity;BMP_temperature;BMP_pressure;BME280_temperature;BME280_humidity;BME280_pressure;Samples;Min_cycle;Max_cycle;Signal;HPM_P1;HPM_P2
2022/11/02 00:01:54;;;;;;;6.30;2.23;;;14.50;99.90;;;;;;5076286;28;20491;-77
2022/11/02 00:04:21;;;;;;;7.33;3.07;;;14.50;99.90;;;;;;5076291;28;20457;-80
2022/11/02 00:06:49;;;;;;;9.63;2.23;;;14.50;99.90;;;;;;5074468;28;20476;-81
2022/11/02 00:09:16;;;;;;;7.80;2.00;;;14.50;99.90;;;;;;5074727;28;20450;-81
2022/11/02 00:11:43;;;;;;;9.00;1.57;;;14.50;99.90;;;;;;5075532;28;20444;-79
2022/11/02 00:14:09;;;;;;;10.30;1.90;;;14.50;99.90;;;;;;5076596;28;20450;-79
2022/11/02 00:16:38;;;;;;;8.33;1.73;;;14.60;99.90;;;;;;5076176;28;20489;-81
2022/11/02 00:19:05;;;;;;;6.80;1.77;;;14.50;99.90;;;;;;5074755;28;20488;-81
2022/11/02 00:21:32;;;;;;;5.33;1.40;;;14.50;99.90;;;;;;5071830;28;20481;-80
2022/11/02 00:24:01;;;;;;;11.40;2.50;;;14.60;99.90;;;;;;5077386;28;20449;-78
2022/11/02 00:26:28;;;;;;;7.77;1.70;;;14.50;99.90;;;;;;5078099;28;20499;-80
2022/11/02 00:28:55;;;;;;;7.20;1.87;;;14.50;99.90;;;;;;5077348;28;20453;-79
2022/11/02 00:31:22;;;;;;;11.10;2.13;;;14.50;99.90;;;;;;5078622;28;20443;-78
2022/11/02 00:33:49;;;;;;;8.30;2.13;;;14.50;99.90;;;;;;5073561;28;20539;-78
2022/11/02 00:36:16;;;;;;;8.87;2.27;;;14.50;99.90;;;;;;5056602;28;20469;-78
2022/11/02 00:38:42;;;;;;;9.07;2.10;;;14.50;99.90;;;;;;5054570;28;20449;-79
2022/11/02 00:41:11;;;;;;;8.83;1.90;;;14.50;99.90;;;;;;5056533;28;20495;-80
2022/11/02 00:43:38;;;;;;;10.00;2.20;;;14.50;99.90;;;;;;5075042;28;20501;-81
2022/11/02 00:46:05;;;;;;;7.67;2.50;;;14.50;99.90;;;;;;5076260;28;20548;-78
2022/11/02 00:48:32;;;;;;;9.07;1.77;;;14.50;99.90;;;;;;5076222;28;21023;-79
2022/11/02 00:50:59;;;;;;;7.63;1.83;;;14.50;99.90;;;;;;5078481;28;20454;-78
2022/11/02 00:53:26;;;;;;;8.63;1.67;;;14.50;99.90;;;;;;5079391;28;20563;-78
2022/11/02 00:55:53;;;;;;;12.70;2.10;;;14.40;99.90;;;;;;5079514;28;20479;-80
2022/11/02 00:58:22;;;;;;;6.00;1.67;;;14.40;99.90;;;;;;5075905;28;20969;-79
2022/11/02 01:00:48;;;;;;;7.50;2.03;;;14.40;99.90;;;;;;5076269;28;20574;-80
2022/11/02 01:03:15;;;;;;;5.87;1.87;;;14.40;99.90;;;;;;5071766;28;20464;-79
2022/11/02 01:05:42;;;;;;;6.30;1.60;;;14.40;99.90;;;;;;5074993;28;20481;-79
2022/11/02 01:08:09;;;;;;;5.47;1.67;;;14.40;99.90;;;;;;5075278;28;20538;-79
2022/11/02 01:10:36;;;;;;;7.50;2.07;;;14.50;99.90;;;;;;5074688;28;20459;-78
2022/11/02 01:13:03;;;;;;;3.83;1.43;;;14.40;99.90;;;;;;5075398;28;20445;-78
2022/11/02 01:15:31;;;;;;;6.10;2.37;;;14.40;99.90;;;;;;5074897;28;20458;-79
2022/11/02 01:17:58;;;;;;;8.70;2.03;;;14.50;99.90;;;;;;5059868;28;20974;-78
2022/11/02 01:20:24;;;;;;;7.87;2.53;;;14.50;99.90;;;;;;5054249;28;20668;-78
2022/11/02 01:22:51;;;;;;;4.93;1.73;;;14.40;99.90;;;;;;5055555;28;20954;-81
2022/11/02 01:25:18;;;;;;;9.27;2.00;;;14.40;99.90;;;;;;5055785;28;20538;-78
2022/11/02 01:27:45;;;;;;;10.30;1.60;;;14.40;99.90;;;;;;5054988;28;20477;-79
2022/11/02 01:30:13;;;;;;;6.90;2.00;;;14.30;99.90;;;;;;5054715;28;20544;-80
2022/11/02 01:32:41;;;;;;;8.17;2.00;;;14.30;99.90;;;;;;5073760;28;20914;-80
2022/11/02 01:35:09;;;;;;;13.50;2.20;;;14.30;99.90;;;;;;5075333;28;20448;-80
2022/11/02 01:37:36;;;;;;;8.03;1.70;;;14.30;99.90;;;;;;5074398;28;20459;-80
2022/11/02 01:40:03;;;;;;;6.80;2.00;;;14.30;99.90;;;;;;5074303;28;20539;-80
2022/11/02 01:42:29;;;;;;;8.40;1.57;;;14.20;99.90;;;;;;5074993;28;20502;-81
2022/11/02 01:44:56;;;;;;;8.60;2.83;;;14.20;99.90;;;;;;5076264;28;20456;-79
2022/11/02 01:47:26;;;;;;;6.00;1.40;;;14.20;99.90;;;;;;5076394;28;20483;-78
2022/11/02 01:50:04;;;;;;;8.43;1.70;;;14.20;99.90;;;;;;5075353;28;20454;-79
2022/11/02 01:52:35;;;;;;;12.60;1.83;;;14.10;99.90;;;;;;5076505;28;20440;-81
2022/11/02 01:55:07;;;;;;;5.80;1.90;;;14.20;99.90;;;;;;5079815;28;20453;-79
2022/11/02 01:57:36;;;;;;;11.53;2.30;;;14.10;99.90;;;;;;5078871;28;20859;-79
2022/11/02 02:00:06;;;;;;;8.10;1.93;;;14.10;99.90;;;;;;5079048;28;20828;-80
2022/11/02 02:02:37;;;;;;;7.87;2.13;;;14.10;99.90;;;;;;5078162;28;20499;-81
2022/11/02 02:05:08;;;;;;;7.40;1.73;;;14.10;99.90;;;;;;5079640;28;20464;-80
2022/11/02 02:07:38;;;;;;;9.37;2.00;;;14.20;99.90;;;;;;5079328;28;20471;-81
2022/11/02 02:10:06;;;;;;;9.27;2.00;;;14.20;99.90;;;;;;5077893;28;20465;-82
2022/11/02 02:12:34;;;;;;;10.30;2.20;;;14.30;99.90;;;;;;5079101;28;20893;-81
2022/11/02 02:15:01;;;;;;;9.43;1.67;;;14.30;99.90;;;;;;5079841;28;20532;-80
2022/11/02 02:17:37;;;;;;;5.20;1.53;;;14.30;99.90;;;;;;5078490;28;20485;-82
2022/11/02 02:20:14;;;;;;;5.40;1.87;;;14.30;99.90;;;;;;5078565;28;20522;-80
2022/11/02 02:23:12;;;;;;;7.50;1.83;;;14.40;99.90;;;;;;5077705;28;20487;-78
2022/11/02 02:26:08;;;;;;;10.03;2.53;;;14.20;99.90;;;;;;5078730;28;20446;-80
2022/11/02 02:28:42;;;;;;;6.53;2.50;;;14.30;99.90;;;;;;5077975;28;20444;-82
2022/11/02 02:31:15;;;;;;;7.30;1.87;;;14.30;99.90;;;;;;5079404;28;20500;-80
2022/11/02 02:33:47;;;;;;;5.13;1.40;;;14.20;99.90;;;;;;5078313;28;20452;-77
2022/11/02 02:36:20;;;;;;;11.40;2.33;;;14.30;99.90;;;;;;5071530;28;20858;-81
2022/11/02 02:38:53;;;;;;;6.80;1.70;;;14.10;99.90;;;;;;5058078;28;20900;-80
2022/11/02 02:41:26;;;;;;;8.93;1.97;;;14.20;99.90;;;;;;5059070;28;20482;-80
2022/11/02 02:43:57;;;;;;;10.03;1.90;;;14.10;99.90;;;;;;5058955;28;20435;-80
2022/11/02 02:46:30;;;;;;;4.70;1.40;;;14.10;99.90;;;;;;5058837;28;20475;-81
2022/11/02 02:48:59;;;;;;;10.73;1.93;;;14.10;99.90;;;;;;5058284;28;20825;-81
2022/11/02 02:51:28;;;;;;;7.13;1.87;;;14.00;99.90;;;;;;5069859;28;20449;-81
2022/11/02 02:54:00;;;;;;;9.20;2.50;;;14.10;99.90;;;;;;5078380;28;20519;-81
2022/11/02 02:56:31;;;;;;;12.03;2.00;;;14.10;99.90;;;;;;5078206;28;20553;-81
2022/11/02 02:59:02;;;;;;;7.23;2.83;;;14.00;99.90;;;;;;5077394;28;20521;-81
2022/11/02 03:01:29;;;;;;;6.23;1.60;;;14.10;99.90;;;;;;5064078;28;20483;-80
2022/11/02 03:03:56;;;;;;;5.20;1.53;;;14.00;99.90;;;;;;5065329;28;21085;-79
2022/11/02 03:06:27;;;;;;;5.20;2.00;;;14.10;99.90;;;;;;5064538;28;20824;-82
2022/11/02 03:09:02;;;;;;;6.53;2.00;;;14.00;99.90;;;;;;5058106;28;20429;-80
2022/11/02 03:11:30;;;;;;;11.17;1.97;;;13.90;99.90;;;;;;5060378;28;20441;-78
2022/11/02 03:14:08;;;;;;;5.60;1.80;;;13.90;99.90;;;;;;5065657;28;20731;-80
2022/11/02 03:16:48;;;;;;;6.17;1.70;;;14.00;99.90;;;;;;5066401;28;20543;-80
2022/11/02 03:19:23;;;;;;;8.10;2.10;;;14.00;99.90;;;;;;5063336;28;20539;-79
2022/11/02 03:21:55;;;;;;;11.70;2.30;;;13.90;99.90;;;;;;5063717;28;20538;-80
2022/11/02 03:24:27;;;;;;;5.87;2.27;;;14.00;99.90;;;;;;5062725;28;20862;-81
2022/11/02 03:27:05;;;;;;;8.20;1.90;;;14.00;99.90;;;;;;5058103;28;20490;-78
2022/11/02 03:29:42;;;;;;;8.27;2.10;;;14.00;99.90;;;;;;5069161;28;20443;-79
2022/11/02 03:32:12;;;;;;;6.23;1.80;;;14.00;99.90;;;;;;5076348;28;20447;-78
2022/11/02 03:34:43;;;;;;;3.70;1.40;;;13.90;99.90;;;;;;5076813;28;20460;-79
2022/11/02 03:37:14;;;;;;;4.63;1.70;;;13.90;99.90;;;;;;5076458;28;20473;-78
2022/11/02 03:39:46;;;;;;;5.50;2.00;;;13.90;99.90;;;;;;5075276;28;20456;-78
2022/11/02 03:42:17;;;;;;;9.93;2.90;;;13.90;99.90;;;;;;5076559;28;20975;-79
2022/11/02 03:44:47;;;;;;;7.53;1.87;;;13.80;99.90;;;;;;5076722;28;20443;-79
2022/11/02 03:47:16;;;;;;;4.87;1.50;;;13.90;99.90;;;;;;5076945;28;21084;-79
2022/11/02 03:49:45;;;;;;;5.67;1.70;;;14.00;99.90;;;;;;5074525;28;20450;-78
2022/11/02 03:52:18;;;;;;;10.53;2.20;;;13.80;99.90;;;;;;5075629;28;20519;-79
2022/11/02 03:54:52;;;;;;;6.03;1.60;;;13.70;99.90;;;;;;5076222;28;20999;-78
2022/11/02 03:57:21;;;;;;;7.70;2.07;;;13.80;99.90;;;;;;5075798;28;20863;-77
2022/11/02 03:59:49;;;;;;;6.33;1.93;;;13.80;99.90;;;;;;5068543;28;20465;-80
2022/11/02 04:02:18;;;;;;;7.50;2.10;;;13.80;99.90;;;;;;5061922;28;20907;-78
2022/11/02 04:04:49;;;;;;;5.90;1.87;;;13.70;99.90;;;;;;5073194;28;20458;-79
2022/11/02 04:07:20;;;;;;;9.87;1.70;;;13.70;99.90;;;;;;5075081;28;20478;-79
2022/11/02 04:09:47;;;;;;;9.13;2.30;;;13.70;99.90;;;;;;5074490;28;20438;-80
2022/11/02 04:15:00;;;;;;;6.90;2.90;;;13.60;99.90;;;;;;5075056;28;20413;-78
2022/11/02 04:20:11;;;;;;;5.23;1.90;;;13.80;99.90;;;;;;5053833;28;20463;-78
2022/11/02 04:25:23;;;;;;;6.70;3.20;;;13.70;99.90;;;;;;5054491;28;20451;-79
2022/11/02 04:27:51;;;;;;;4.80;1.40;;;13.70;99.90;;;;;;5054328;28;20453;-78
2022/11/02 04:30:21;;;;;;;3.90;1.67;;;13.60;99.90;;;;;;5054081;28;20827;-76
2022/11/02 04:35:36;;;;;;;10.87;2.57;;;13.60;99.90;;;;;;5064511;28;20438;-79
2022/11/02 04:40:47;;;;;;;3.57;2.30;;;13.60;99.90;;;;;;5074702;28;20414;-78
2022/11/02 04:43:14;;;;;;;9.70;1.80;;;13.50;99.90;;;;;;5074712;28;20498;-77
2022/11/02 04:45:42;;;;;;;9.50;2.00;;;13.60;99.90;;;;;;5074362;28;20466;-79
2022/11/02 04:48:10;;;;;;;6.97;1.80;;;13.50;99.90;;;;;;5074286;28;20463;-78
2022/11/02 04:50:37;;;;;;;8.30;1.97;;;13.50;99.90;;;;;;5073795;28;20453;-80
2022/11/02 04:53:05;;;;;;;5.03;1.57;;;13.50;99.90;;;;;;5059098;28;20451;-79
2022/11/02 04:55:33;;;;;;;5.60;1.83;;;13.50;99.90;;;;;;5054587;28;20957;-79
2022/11/02 04:58:00;;;;;;;6.30;1.50;;;13.40;99.90;;;;;;5053851;28;21302;-77
2022/11/02 05:00:27;;;;;;;9.10;2.00;;;13.50;99.90;;;;;;5055157;28;20464;-78
2022/11/02 05:02:56;;;;;;;8.27;1.80;;;13.50;99.90;;;;;;5054462;28;20483;-78
2022/11/02 05:05:22;;;;;;;10.10;1.73;;;13.50;99.90;;;;;;5055541;28;20447;-78
2022/11/02 05:07:49;;;;;;;7.63;1.83;;;13.50;99.90;;;;;;5055260;28;20461;-78
2022/11/02 05:10:16;;;;;;;6.87;1.77;;;13.50;99.90;;;;;;5055225;28;20834;-79
2022/11/02 05:12:43;;;;;;;3.90;1.33;;;13.50;99.90;;;;;;5055720;28;20451;-79
2022/11/02 05:15:10;;;;;;;6.00;1.77;;;13.50;99.90;;;;;;5058668;28;20542;-78
2022/11/02 05:17:37;;;;;;;6.73;1.93;;;13.60;99.90;;;;;;5055867;28;20487;-80
2022/11/02 05:20:07;;;;;;;6.00;1.63;;;13.60;99.90;;;;;;5054152;28;20451;-79
2022/11/02 05:22:34;;;;;;;6.30;1.73;;;13.60;99.90;;;;;;5054238;28;20474;-77
2022/11/02 05:25:01;;;;;;;7.83;1.50;;;13.60;99.90;;;;;;5061627;28;20451;-80
2022/11/02 05:27:28;;;;;;;5.83;1.50;;;13.50;99.90;;;;;;5110955;22;20518;-80
2022/11/02 05:29:54;;;;;;;6.10;1.90;;;13.50;99.90;;;;;;5059752;28;20448;-78
2022/11/02 05:32:21;;;;;;;8.80;1.30;;;13.50;99.90;;;;;;5060569;28;20475;-80
2022/11/02 05:34:48;;;;;;;7.63;1.80;;;13.60;99.90;;;;;;5060630;28;21039;-80
2022/11/02 05:37:16;;;;;;;10.73;2.13;;;13.60;99.90;;;;;;5060551;28;21052;-80
2022/11/02 05:39:43;;;;;;;7.97;2.60;;;13.60;99.90;;;;;;5060540;28;20477;-80
2022/11/02 05:42:10;;;;;;;6.03;1.57;;;13.60;99.90;;;;;;5062232;28;20492;-79
2022/11/02 05:44:37;;;;;;;5.30;1.73;;;13.60;99.90;;;;;;5061004;28;20870;-80
2022/11/02 05:47:04;;;;;;;7.73;1.83;;;13.60;99.90;;;;;;5063256;28;20570;-80
2022/11/02 05:49:31;;;;;;;8.07;1.80;;;13.60;99.90;;;;;;5054213;28;20451;-81
2022/11/02 05:51:58;;;;;;;6.87;1.70;;;13.50;99.90;;;;;;5068822;28;20515;-78
2022/11/02 05:54:26;;;;;;;7.27;2.00;;;13.50;99.90;;;;;;5061889;28;20551;-80
2022/11/02 05:56:53;;;;;;;8.73;1.87;;;13.50;99.90;;;;;;5062193;28;20481;-80
2022/11/02 05:59:20;;;;;;;6.47;1.40;;;13.50;99.90;;;;;;5059683;28;20448;-79
2022/11/02 06:01:47;;;;;;;6.23;2.30;;;13.50;99.90;;;;;;5061967;28;20451;-80
2022/11/02 06:04:13;;;;;;;8.60;2.13;;;13.40;99.90;;;;;;5064261;28;20549;-80
2022/11/02 06:06:40;;;;;;;6.80;1.50;;;13.40;99.90;;;;;;5061792;28;20466;-80
2022/11/02 06:09:08;;;;;;;4.13;1.30;;;13.40;99.90;;;;;;5060288;28;20489;-80
2022/11/02 06:11:36;;;;;;;6.40;1.40;;;13.40;99.90;;;;;;5055669;28;20843;-80
2022/11/02 06:14:03;;;;;;;6.00;1.47;;;13.30;99.90;;;;;;5062136;28;20447;-80
2022/11/02 06:16:30;;;;;;;7.50;1.63;;;13.40;99.90;;;;;;5066190;28;20459;-80
2022/11/02 06:18:57;;;;;;;8.30;1.77;;;13.30;99.90;;;;;;5063133;28;20460;-80
2022/11/02 06:21:24;;;;;;;10.10;2.13;;;13.30;99.90;;;;;;5052442;28;20449;-80
2022/11/02 06:23:51;;;;;;;10.37;2.10;;;13.40;99.90;;;;;;5044988;28;20573;-81
2022/11/02 06:26:18;;;;;;;7.60;1.90;;;13.30;99.90;;;;;;5045276;28;20460;-80
2022/11/02 06:28:46;;;;;;;9.40;1.63;;;13.30;99.90;;;;;;5046267;28;20495;-79
2022/11/02 06:31:16;;;;;;;9.20;1.90;;;13.30;99.90;;;;;;5046342;28;20485;-78
2022/11/02 06:33:43;;;;;;;4.50;1.73;;;13.30;99.90;;;;;;5044359;28;20798;-78
2022/11/02 06:36:11;;;;;;;5.17;1.57;;;13.30;99.90;;;;;;5047140;28;20471;-79
2022/11/02 06:38:38;;;;;;;8.40;3.30;;;13.20;99.90;;;;;;5045149;28;20478;-78
2022/11/02 06:41:05;;;;;;;5.40;1.80;;;13.20;99.90;;;;;;5043904;28;20454;-81
2022/11/02 06:43:33;;;;;;;9.67;2.40;;;13.20;99.90;;;;;;5045075;28;20495;-79
2022/11/02 06:46:01;;;;;;;10.60;2.30;;;13.20;99.90;;;;;;5045089;28;20520;-81
2022/11/02 06:48:28;;;;;;;12.47;2.07;;;13.30;99.90;;;;;;5041855;28;20548;-80
2022/11/02 06:50:55;;;;;;;6.37;1.70;;;13.30;99.90;;;;;;5042405;28;20968;-79
2022/11/02 06:53:22;;;;;;;4.67;1.70;;;13.30;99.90;;;;;;5040711;28;20457;-79
2022/11/02 06:55:52;;;;;;;11.00;2.10;;;13.40;99.90;;;;;;5038864;28;20487;-79
2022/11/02 06:58:19;;;;;;;6.47;1.83;;;13.50;99.90;;;;;;5040021;28;20846;-78
2022/11/02 07:00:46;;;;;;;5.27;1.53;;;13.50;99.90;;;;;;5041481;28;20499;-78
2022/11/02 07:03:14;;;;;;;10.80;2.07;;;13.40;99.90;;;;;;5040435;28;20603;-78
2022/11/02 07:05:41;;;;;;;4.90;2.20;;;13.40;99.90;;;;;;5040669;28;20457;-79
2022/11/02 07:08:08;;;;;;;6.40;1.90;;;13.40;99.90;;;;;;5050341;28;20472;-78
2022/11/02 07:10:35;;;;;;;6.87;1.80;;;13.50;99.90;;;;;;5042903;28;20747;-78
2022/11/02 07:13:02;;;;;;;7.50;2.20;;;13.40;99.90;;;;;;5042118;28;21061;-78
2022/11/02 07:15:29;;;;;;;8.87;2.27;;;13.40;99.90;;;;;;5059002;28;20645;-78
2022/11/02 07:17:56;;;;;;;10.83;2.70;;;13.40;99.90;;;;;;5056942;28;20541;-78
2022/11/02 07:20:24;;;;;;;8.73;2.13;;;13.50;99.90;;;;;;5058470;28;20542;-78
2022/11/02 07:22:54;;;;;;;8.30;1.77;;;13.50;99.90;;;;;;5058276;28;20488;-76
2022/11/02 07:25:21;;;;;;;5.90;1.63;;;13.60;99.90;;;;;;5056699;28;20550;-78
2022/11/02 07:27:48;;;;;;;4.80;1.67;;;13.60;99.90;;;;;;5054607;28;20573;-77
2022/11/02 07:30:15;;;;;;;7.13;1.70;;;13.60;99.90;;;;;;5059509;28;21001;-78
2022/11/02 07:32:43;;;;;;;9.20;1.80;;;13.50;99.90;;;;;;5057406;28;20827;-78
2022/11/02 07:35:11;;;;;;;8.20;2.10;;;13.60;99.90;;;;;;5056639;28;20561;-78
2022/11/02 07:37:40;;;;;;;10.63;2.10;;;13.60;99.90;;;;;;5056878;28;20469;-78
2022/11/02 07:40:09;;;;;;;7.57;1.80;;;13.50;99.90;;;;;;5053726;28;20486;-78
2022/11/02 07:42:36;;;;;;;10.20;2.13;;;13.50;99.90;;;;;;5039888;28;20569;-79
2022/11/02 07:45:03;;;;;;;6.80;1.70;;;13.50;99.90;;;;;;5040932;28;20512;-78
2022/11/02 07:47:30;;;;;;;7.47;1.93;;;13.40;99.90;;;;;;5040833;28;21053;-78
2022/11/02 07:49:58;;;;;;;5.07;1.60;;;13.40;99.90;;;;;;5056197;28;20480;-78
2022/11/02 07:52:25;;;;;;;5.73;1.77;;;13.50;99.90;;;;;;5063119;28;20456;-79
2022/11/02 07:54:53;;;;;;;7.23;1.40;;;13.50;99.90;;;;;;5062667;28;20456;-79
2022/11/02 07:57:20;;;;;;;6.73;1.50;;;13.50;99.90;;;;;;5060401;28;20475;-79
2022/11/02 07:59:47;;;;;;;7.73;2.10;;;13.60;99.90;;;;;;5041969;28;20471;-78
2022/11/02 08:02:13;;;;;;;10.90;2.20;;;13.60;99.90;;;;;;5038912;28;20494;-78
2022/11/02 08:04:40;;;;;;;6.23;2.17;;;13.60;99.90;;;;;;5038667;28;20534;-79
2022/11/02 08:07:07;;;;;;;5.90;2.10;;;13.70;99.90;;;;;;5039404;28;20548;-78
2022/11/02 08:09:34;;;;;;;9.40;2.07;;;13.70;99.90;;;;;;5049997;28;20484;-79
2022/11/02 08:12:02;;;;;;;7.90;2.10;;;13.70;99.90;;;;;;5058046;28;20458;-78
2022/11/02 08:14:29;;;;;;;3.93;1.40;;;13.70;99.90;;;;;;5058151;28;20535;-78
2022/11/02 08:16:56;;;;;;;8.93;1.87;;;13.70;99.90;;;;;;5057726;28;20466;-78
2022/11/02 08:19:22;;;;;;;11.53;2.13;;;13.70;99.90;;;;;;5044701;28;20486;-77
2022/11/02 08:21:50;;;;;;;9.90;2.30;;;13.60;99.90;;;;;;5037795;28;20506;-79
2022/11/02 08:24:16;;;;;;;10.53;2.73;;;13.70;99.90;;;;;;5038611;28;20489;-79
2022/11/02 08:26:43;;;;;;;7.47;2.00;;;13.80;99.90;;;;;;5039052;28;20506;-77
2022/11/02 08:29:12;;;;;;;8.33;1.77;;;13.70;99.90;;;;;;5048064;28;20451;-77
2022/11/02 08:31:39;;;;;;;21.13;2.60;;;13.80;99.90;;;;;;5056372;28;20541;-78
2022/11/02 08:34:05;;;;;;;5.87;1.40;;;13.80;99.90;;;;;;5056941;28;20567;-78
2022/11/02 08:36:35;;;;;;;6.83;1.70;;;13.90;99.90;;;;;;5058604;28;20446;-78
2022/11/02 08:39:02;;;;;;;7.30;1.90;;;13.80;99.90;;;;;;5058231;28;20448;-79
2022/11/02 08:41:29;;;;;;;6.80;2.27;;;13.90;99.90;;;;;;5057160;28;20971;-78
2022/11/02 08:43:56;;;;;;;6.90;1.93;;;13.80;99.90;;;;;;5051395;28;21084;-78
2022/11/02 08:46:24;;;;;;;9.23;2.27;;;13.90;99.90;;;;;;5042956;28;20454;-78
2022/11/02 08:48:51;;;;;;;8.70;1.90;;;14.00;99.90;;;;;;5034130;28;20457;-78
2022/11/02 08:51:18;;;;;;;10.50;2.80;;;14.10;99.90;;;;;;5041643;28;20472;-78
2022/11/02 08:53:45;;;;;;;10.90;2.30;;;14.20;99.90;;;;;;5057089;28;20445;-79
2022/11/02 08:56:11;;;;;;;7.00;1.63;;;14.30;99.90;;;;;;5053038;28;20460;-78
2022/11/02 08:58:38;;;;;;;8.87;2.40;;;14.30;99.90;;;;;;5051451;28;20480;-77
2022/11/02 09:01:05;;;;;;;4.70;1.67;;;14.20;99.90;;;;;;5039272;28;20453;-77
2022/11/02 09:03:33;;;;;;;9.80;2.47;;;14.20;99.90;;;;;;5058687;28;20484;-78
2022/11/02 09:06:01;;;;;;;11.70;2.03;;;14.30;99.90;;;;;;5048671;28;20458;-78
2022/11/02 09:08:29;;;;;;;6.40;1.90;;;14.20;99.90;;;;;;5049011;28;20818;-77
2022/11/02 09:10:59;;;;;;;13.20;1.90;;;14.10;99.90;;;;;;5040230;28;20451;-78
2022/11/02 09:13:26;;;;;;;11.47;2.07;;;14.10;99.90;;;;;;5055770;28;20839;-77
2022/11/02 09:15:55;;;;;;;7.60;1.80;;;14.00;99.90;;;;;;5044701;28;20463;-78
2022/11/02 09:18:22;;;;;;;10.23;2.67;;;14.00;99.90;;;;;;5048430;28;20509;-78
2022/11/02 09:20:51;;;;;;;6.27;1.77;;;14.20;99.90;;;;;;5043387;28;20455;-78
2022/11/02 09:23:19;;;;;;;7.37;2.00;;;14.30;99.90;;;;;;5038612;28;20480;-77
2022/11/02 09:25:46;;;;;;;12.80;2.40;;;14.40;99.90;;;;;;5062120;28;20461;-77
2022/11/02 09:28:15;;;;;;;11.20;2.03;;;14.40;99.90;;;;;;5060084;28;20570;-76
2022/11/02 09:30:42;;;;;;;6.40;2.27;;;14.50;99.90;;;;;;5056281;28;20511;-78
2022/11/02 09:33:10;;;;;;;8.30;2.30;;;14.50;99.90;;;;;;5044189;28;20455;-78
2022/11/02 09:35:39;;;;;;;9.10;2.27;;;14.50;99.90;;;;;;5037395;28;20545;-77
2022/11/02 09:38:08;;;;;;;9.30;1.53;;;14.60;99.90;;;;;;5040942;28;20477;-78
2022/11/02 09:40:37;;;;;;;6.27;1.80;;;14.50;99.90;;;;;;5059466;28;20575;-78
2022/11/02 09:43:14;;;;;;;27.63;3.50;;;14.60;99.90;;;;;;5058137;28;20480;-78
2022/11/02 09:45:51;;;;;;;9.63;2.33;;;14.70;99.90;;;;;;5041480;28;20540;-78
2022/11/02 09:48:22;;;;;;;8.83;1.83;;;14.70;99.90;;;;;;5037400;28;20917;-77
2022/11/02 09:50:55;;;;;;;8.17;2.43;;;14.80;99.90;;;;;;5038205;28;20541;-78
2022/11/02 09:53:32;;;;;;;9.23;2.37;;;14.90;99.90;;;;;;5038429;28;20435;-78
2022/11/02 09:56:01;;;;;;;7.63;2.03;;;15.00;99.90;;;;;;5039702;28;20447;-79
2022/11/02 09:58:33;;;;;;;8.27;1.73;;;15.10;99.90;;;;;;5058045;28;20464;-79
2022/11/02 10:01:13;;;;;;;10.53;3.00;;;15.10;99.90;;;;;;5061746;28;20456;-78
2022/11/02 10:03:58;;;;;;;10.47;1.80;;;15.20;99.90;;;;;;5062216;28;20483;-78
2022/11/02 10:06:26;;;;;;;6.30;2.10;;;15.20;99.90;;;;;;5060909;28;20453;-77
2022/11/02 10:09:06;;;;;;;7.13;1.93;;;15.10;99.90;;;;;;5059717;28;20527;-78
2022/11/02 10:11:44;;;;;;;14.53;1.90;;;15.10;99.90;;;;;;5059284;28;20544;-79
2022/11/02 10:14:15;;;;;;;8.50;1.97;;;15.20;99.90;;;;;;5059186;28;20465;-79
2022/11/02 10:16:49;;;;;;;7.73;3.30;;;15.20;99.90;;;;;;5060684;28;20465;-79
2022/11/02 10:19:20;;;;;;;5.97;1.53;;;15.30;99.90;;;;;;5058598;28;20457;-79
2022/11/02 10:21:49;;;;;;;10.30;2.97;;;15.50;99.90;;;;;;5061293;28;20780;-79
2022/11/02 10:24:25;;;;;;;5.23;1.77;;;15.60;99.90;;;;;;5062360;28;20555;-79
2022/11/02 10:26:56;;;;;;;10.33;2.07;;;15.70;99.90;;;;;;5059930;28;20546;-79
2022/11/02 10:29:34;;;;;;;6.73;2.50;;;15.80;99.90;;;;;;5058600;28;20448;-79
2022/11/02 10:32:02;;;;;;;9.63;1.97;;;15.90;99.90;;;;;;5060092;28;20447;-79
2022/11/02 10:34:30;;;;;;;14.20;2.40;;;16.00;99.90;;;;;;5044367;28;20443;-78
2022/11/02 10:37:07;;;;;;;6.30;2.00;;;15.90;99.90;;;;;;5042106;28;20475;-78
2022/11/02 10:39:48;;;;;;;6.50;2.00;;;16.10;99.90;;;;;;5055958;28;20471;-79
2022/11/02 10:42:41;;;;;;;5.27;1.70;;;16.30;99.90;;;;;;5060335;28;20984;-78
2022/11/02 10:45:45;;;;;;;5.33;1.63;;;16.70;99.90;;;;;;5060912;28;20857;-79
2022/11/02 10:48:26;;;;;;;8.80;1.67;;;16.80;99.90;;;;;;5059237;28;20470;-79
2022/11/02 10:51:01;;;;;;;7.30;1.83;;;17.20;99.90;;;;;;5058771;28;20454;-80
2022/11/02 10:53:33;;;;;;;8.87;1.93;;;17.80;99.90;;;;;;5049558;28;20436;-78
2022/11/02 10:56:10;;;;;;;11.67;1.73;;;18.30;99.90;;;;;;5059777;28;20507;-79
2022/11/02 10:58:40;;;;;;;9.37;2.03;;;19.00;99.90;;;;;;5060624;28;20469;-79
2022/11/02 11:01:09;;;;;;;7.53;2.40;;;18.60;99.90;;;;;;5059323;28;20441;-78
2022/11/02 11:03:54;;;;;;;5.50;1.90;;;18.40;99.90;;;;;;5059939;28;20485;-78
2022/11/02 11:06:22;;;;;;;6.63;1.50;;;18.90;99.90;;;;;;5056930;28;20451;-78
2022/11/02 11:08:50;;;;;;;5.30;1.70;;;19.60;99.90;;;;;;5041014;28;20519;-79
2022/11/02 11:11:25;;;;;;;5.63;1.63;;;20.60;99.90;;;;;;5055331;28;20501;-79
2022/11/02 11:13:58;;;;;;;7.57;1.80;;;21.50;99.90;;;;;;5062034;28;20428;-77
2022/11/02 11:16:41;;;;;;;3.20;1.30;;;22.70;99.90;;;;;;5046596;28;20524;-78
2022/11/02 11:19:20;;;;;;;10.50;2.00;;;22.60;99.90;;;;;;5039752;28;20480;-78
2022/11/02 11:21:48;;;;;;;5.47;1.53;;;22.90;99.90;;;;;;5039419;28;20472;-78
2022/11/02 11:24:27;;;;;;;7.33;1.40;;;23.70;99.90;;;;;;5039845;28;20508;-79
2022/11/02 11:29:23;;;;;;;7.97;1.80;;;24.40;99.90;;;;;;5079287;28;20302;-80
2022/11/02 11:31:50;;;;;;;8.57;1.67;;;24.40;97.60;;;;;;5084043;28;20514;-80
2022/11/02 11:34:25;;;;;;;5.13;1.80;;;23.30;94.60;;;;;;5084816;28;20458;-81
2022/11/02 11:36:52;;;;;;;5.17;1.70;;;23.20;96.40;;;;;;5084000;28;20534;-81
2022/11/02 11:39:26;;;;;;;6.50;1.83;;;23.50;97.20;;;;;;5059628;28;20534;-80
2022/11/02 11:41:53;;;;;;;6.70;2.00;;;23.80;95.20;;;;;;5059246;28;20472;-82
2022/11/02 11:44:24;;;;;;;9.03;2.27;;;24.50;96.70;;;;;;5069779;28;20881;-82
2022/11/02 11:46:56;;;;;;;4.93;1.30;;;23.80;92.60;;;;;;5062742;28;20971;-82
2022/11/02 11:49:27;;;;;;;5.47;1.40;;;23.60;93.20;;;;;;5061147;28;20539;-82
2022/11/02 11:51:55;;;;;;;5.63;1.40;;;23.10;92.90;;;;;;5057219;28;20501;-81
2022/11/02 11:54:25;;;;;;;7.73;1.83;;;22.90;92.30;;;;;;5062846;28;20516;-81
2022/11/02 11:56:54;;;;;;;4.97;1.90;;;22.90;92.00;;;;;;5055414;28;20452;-81
2022/11/02 11:59:26;;;;;;;8.63;2.10;;;22.90;92.30;;;;;;5062099;28;20462;-82
2022/11/02 12:01:57;;;;;;;6.03;1.40;;;23.30;94.00;;;;;;5065260;28;20775;-79
2022/11/02 12:04:35;;;;;;;6.87;1.60;;;23.80;92.70;;;;;;5065850;28;20860;-82
2022/11/02 12:07:34;;;;;;;8.40;2.20;;;23.50;92.00;;;;;;5065063;28;20535;-82
2022/11/02 12:10:08;;;;;;;6.33;1.73;;;22.60;91.50;;;;;;5032071;28;20460;-80
2022/11/02 12:12:47;;;;;;;7.60;2.00;;;22.70;92.90;;;;;;5044409;28;20551;-83
2022/11/02 12:15:26;;;;;;;6.17;1.90;;;22.30;92.30;;;;;;5045618;28;20459;-83
2022/11/02 12:18:09;;;;;;;6.90;1.80;;;21.60;92.30;;;;;;5049177;28;20476;-80
2022/11/02 12:20:53;;;;;;;3.80;1.83;;;21.40;93.30;;;;;;5062738;28;20520;-83
2022/11/02 12:23:39;;;;;;;6.20;2.07;;;21.40;96.00;;;;;;5063063;28;20515;-81
2022/11/02 12:26:21;;;;;;;4.30;1.30;;;21.20;95.50;;;;;;5064352;28;21007;-81
2022/11/02 12:28:59;;;;;;;7.47;1.80;;;20.90;95.50;;;;;;5061231;28;20464;-82
2022/11/02 12:31:37;;;;;;;5.90;1.50;;;20.80;94.70;;;;;;5063371;28;20527;-81
2022/11/02 12:34:26;;;;;;;8.07;2.10;;;20.30;94.40;;;;;;5063627;28;20455;-82
2022/11/02 12:37:07;;;;;;;5.30;1.40;;;19.90;96.00;;;;;;5062372;28;20925;-79
2022/11/02 12:39:48;;;;;;;6.13;1.50;;;19.20;95.20;;;;;;5061517;28;20476;-80
2022/11/02 12:42:26;;;;;;;4.50;1.30;;;19.10;95.90;;;;;;5062573;28;20448;-80
2022/11/02 12:45:19;;;;;;;7.30;1.97;;;19.00;98.10;;;;;;5056794;28;20480;-81
2022/11/02 12:47:56;;;;;;;6.00;1.40;;;19.30;98.50;;;;;;5058566;28;20555;-81
2022/11/02 12:50:33;;;;;;;8.87;1.77;;;20.00;99.00;;;;;;5060462;28;20440;-81
2022/11/02 12:53:11;;;;;;;6.90;1.90;;;20.20;96.90;;;;;;5062326;28;20432;-80
2022/11/02 12:55:41;;;;;;;3.30;1.70;;;20.90;97.30;;;;;;5063042;28;20840;-82
2022/11/02 12:58:17;;;;;;;6.43;1.80;;;21.80;96.90;;;;;;5062288;28;21163;-80
2022/11/02 13:00:47;;;;;;;5.40;1.63;;;21.70;95.40;;;;;;5062478;28;20467;-81
2022/11/02 13:03:25;;;;;;;9.27;2.07;;;21.80;95.20;;;;;;5063316;28;20531;-81
2022/11/02 13:05:59;;;;;;;8.20;2.03;;;21.80;94.50;;;;;;5063739;28;20655;-81
2022/11/02 13:08:34;;;;;;;7.73;1.70;;;21.60;94.60;;;;;;5062804;28;20566;-79
2022/11/02 13:11:06;;;;;;;8.00;1.77;;;21.80;95.50;;;;;;5060668;28;20526;-81
2022/11/02 13:13:36;;;;;;;7.30;1.60;;;21.10;94.30;;;;;;5065297;28;20887;-79
2022/11/02 13:16:06;;;;;;;5.00;1.60;;;20.80;94.40;;;;;;5056436;28;20448;-80
2022/11/02 13:18:37;;;;;;;7.07;2.10;;;20.20;95.30;;;;;;5059713;28;21011;-81